createdAt,value
2023-02-20T00:00:31.732Z,11.73
2023-02-20T00:02:59.384Z,4.68
2023-02-20T00:05:26.766Z,10.05
2023-02-20T00:07:54.092Z,9.80
2023-02-20T00:10:21.477Z,15.70
2023-02-20T00:12:49.137Z,14.50
2023-02-20T00:15:19.477Z,15.48
2023-02-20T00:17:47.488Z,13.27
2023-02-20T00:20:17.134Z,8.52
2023-02-20T00:22:44.602Z,10.25
2023-02-20T00:25:12.302Z,20.17
2023-02-20T00:27:39.520Z,6.97
2023-02-20T00:30:11.554Z,13.52
2023-02-20T00:32:38.905Z,8.77
2023-02-20T00:35:06.609Z,13.43
2023-02-20T00:37:34.634Z,15.60
2023-02-20T00:40:02.102Z,9.77
2023-02-20T00:42:29.513Z,13.88
2023-02-20T00:44:56.877Z,10.60
2023-02-20T00:47:24.372Z,8.63
2023-02-20T00:49:51.830Z,8.70
2023-02-20T00:52:23.529Z,14.77
2023-02-20T00:54:50.828Z,5.85
2023-02-20T00:57:19.094Z,12.00
2023-02-20T00:59:46.477Z,15.02
2023-02-20T01:02:13.779Z,9.35
2023-02-20T01:04:41.128Z,11.18
2023-02-20T01:07:10.372Z,8.38
2023-02-20T01:09:39.476Z,21.05
2023-02-20T01:12:07.286Z,8.40
2023-02-20T01:14:34.956Z,7.45
2023-02-20T01:17:03.056Z,14.10
2023-02-20T01:19:30.617Z,8.93
2023-02-20T01:21:57.934Z,6.40
2023-02-20T01:24:26.844Z,9.70
2023-02-20T01:26:54.240Z,11.93
2023-02-20T01:29:21.659Z,13.43
2023-02-20T01:31:51.020Z,14.57
2023-02-20T01:34:20.236Z,6.97
2023-02-20T01:36:52.892Z,9.25
2023-02-20T01:39:24.211Z,7.20
2023-02-20T01:41:56.672Z,2.97
2023-02-20T01:44:30.371Z,15.57
2023-02-20T01:46:59.848Z,12.70
2023-02-20T01:49:33.350Z,11.05
2023-02-20T01:52:25.694Z,8.75
2023-02-20T01:55:13.716Z,7.97
2023-02-20T01:57:44.091Z,9.75
2023-02-20T02:00:16.245Z,12.50
2023-02-20T02:02:50.161Z,26.42
2023-02-20T02:05:18.593Z,9.45
2023-02-20T02:07:46.159Z,14.57
2023-02-20T02:10:17.973Z,7.45
2023-02-20T02:12:51.481Z,10.05
2023-02-20T02:15:21.755Z,4.55
2023-02-20T02:17:57.814Z,8.95
2023-02-20T02:20:49.897Z,5.07
2023-02-20T02:23:59.469Z,3.97
2023-02-20T02:26:52.017Z,20.02
2023-02-20T02:29:52.964Z,4.63
2023-02-20T02:32:59.877Z,5.15
2023-02-20T02:36:05.305Z,4.43
2023-02-20T02:38:54.863Z,8.52
2023-02-20T02:41:33.097Z,5.93
2023-02-20T02:44:23.095Z,6.22
2023-02-20T02:46:57.365Z,5.70
2023-02-20T02:49:36.618Z,10.73
2023-02-20T02:52:05.636Z,6.13
2023-02-20T02:54:32.888Z,3.70
2023-02-20T02:57:36.718Z,4.28
2023-02-20T03:00:18.068Z,2.85
2023-02-20T03:03:08.516Z,6.63
2023-02-20T03:05:48.314Z,2.08
2023-02-20T03:08:30.984Z,3.70
2023-02-20T03:11:03.671Z,6.25
2023-02-20T03:13:54.605Z,8.70
2023-02-20T03:16:30.619Z,7.72
2023-02-20T03:19:02.379Z,7.65
2023-02-20T03:21:32.184Z,3.38
2023-02-20T03:24:02.244Z,4.28
2023-02-20T03:26:33.792Z,4.72
2023-02-20T03:29:24.353Z,4.38
2023-02-20T03:34:59.286Z,8.37
2023-02-20T03:37:50.352Z,4.28
2023-02-20T03:40:37.195Z,4.10
2023-02-20T03:43:44.628Z,6.43
2023-02-20T03:46:22.820Z,10.27
2023-02-20T03:49:03.023Z,6.22
2023-02-20T03:51:31.517Z,4.70
2023-02-20T03:54:04.782Z,6.50
2023-02-20T03:56:43.914Z,6.15
2023-02-20T03:59:21.191Z,3.65
2023-02-20T04:01:52.409Z,4.00
2023-02-20T04:04:25.142Z,3.75
2023-02-20T04:06:54.291Z,8.23
2023-02-20T04:09:33.527Z,3.10
2023-02-20T04:12:08.414Z,8.68
2023-02-20T04:14:36.796Z,1.88
2023-02-20T04:17:13.528Z,7.03
2023-02-20T04:19:41.407Z,6.38
2023-02-20T04:22:14.072Z,3.50
2023-02-20T04:24:50.777Z,7.15
2023-02-20T04:27:18.840Z,3.60
2023-02-20T04:29:52.933Z,3.28
2023-02-20T04:32:20.502Z,3.25
2023-02-20T04:34:47.926Z,7.40
2023-02-20T04:37:21.320Z,3.38
2023-02-20T04:39:52.311Z,4.45
2023-02-20T04:42:19.597Z,1.45
2023-02-20T04:44:47.023Z,7.43
2023-02-20T04:47:16.760Z,3.45
2023-02-20T04:49:44.915Z,3.20
2023-02-20T04:52:16.463Z,7.38
2023-02-20T04:54:43.740Z,3.42
2023-02-20T04:57:13.584Z,7.80
2023-02-20T04:59:41.432Z,7.55
2023-02-20T05:02:10.491Z,5.35
2023-02-20T05:04:37.834Z,5.65
2023-02-20T05:07:06.096Z,8.70
2023-02-20T05:09:33.303Z,3.15
2023-02-20T05:12:00.746Z,7.13
2023-02-20T05:14:27.971Z,6.20
2023-02-20T05:16:55.273Z,5.32
2023-02-20T05:19:22.644Z,7.43
2023-02-20T05:22:08.639Z,3.05
2023-02-20T05:24:35.908Z,8.57
2023-02-20T05:27:03.264Z,3.45
2023-02-20T05:29:30.538Z,3.72
2023-02-20T05:31:57.840Z,8.02
2023-02-20T05:34:25.873Z,4.80
2023-02-20T05:36:54.277Z,6.78
2023-02-20T05:39:21.646Z,3.65
2023-02-20T05:41:49.340Z,4.97
2023-02-20T05:44:17.053Z,7.65
2023-02-20T05:46:44.895Z,4.63
2023-02-20T05:49:12.611Z,4.95
2023-02-20T05:51:40.140Z,4.57
2023-02-20T05:54:07.462Z,3.13
2023-02-20T05:56:35.318Z,5.35
2023-02-20T05:59:02.676Z,5.57
2023-02-20T06:01:31.886Z,2.65
2023-02-20T06:04:01.430Z,6.30
2023-02-20T06:06:39.781Z,8.85
2023-02-20T06:09:10.638Z,2.95
2023-02-20T06:11:39.148Z,10.13
2023-02-20T06:14:07.399Z,9.82
2023-02-20T06:16:35.603Z,9.27
2023-02-20T06:19:03.521Z,4.32
2023-02-20T06:21:30.977Z,7.35
2023-02-20T06:23:58.382Z,5.55
2023-02-20T06:26:25.945Z,4.82
2023-02-20T06:28:54.437Z,4.10
2023-02-20T06:31:24.824Z,7.65
2023-02-20T06:33:53.031Z,3.45
2023-02-20T06:36:32.645Z,3.58
2023-02-20T06:39:00.396Z,6.03
2023-02-20T06:41:27.802Z,5.22
2023-02-20T06:43:55.141Z,7.72
2023-02-20T06:46:23.406Z,1.63
2023-02-20T06:48:55.927Z,10.50
2023-02-20T06:51:30.622Z,4.35
2023-02-20T06:53:59.061Z,4.88
2023-02-20T06:56:29.236Z,7.32
2023-02-20T06:58:57.428Z,11.25
2023-02-20T07:01:28.401Z,8.32
2023-02-20T07:03:57.234Z,8.75
2023-02-20T07:06:25.318Z,6.85
2023-02-20T07:08:53.004Z,4.43
2023-02-20T07:11:22.794Z,8.75
2023-02-20T07:13:50.884Z,3.95
2023-02-20T07:16:18.329Z,3.38
2023-02-20T07:18:45.675Z,5.13
2023-02-20T07:21:12.989Z,6.63
2023-02-20T07:23:40.419Z,4.18
2023-02-20T07:26:07.667Z,6.13
2023-02-20T07:28:38.124Z,6.38
2023-02-20T07:31:05.501Z,3.75
2023-02-20T07:33:32.778Z,6.97
2023-02-20T07:36:00.180Z,17.27
2023-02-20T07:38:27.495Z,6.68
2023-02-20T07:40:54.752Z,8.90
2023-02-20T07:43:22.120Z,9.75
2023-02-20T07:45:51.429Z,4.15
2023-02-20T07:48:18.819Z,4.32
2023-02-20T07:50:46.206Z,11.43
2023-02-20T07:53:19.307Z,8.95
2023-02-20T07:55:46.678Z,14.70
2023-02-20T07:58:13.916Z,7.32
2023-02-20T08:00:41.144Z,15.40
2023-02-20T08:03:08.476Z,17.10
2023-02-20T08:05:48.246Z,11.50
2023-02-20T08:08:16.270Z,15.75
2023-02-20T08:10:43.507Z,7.55
2023-02-20T08:13:10.919Z,10.50
2023-02-20T08:15:39.371Z,6.82
2023-02-20T08:18:15.609Z,8.48
2023-02-20T08:20:49.525Z,8.20
2023-02-20T08:23:19.226Z,2.72
2023-02-20T08:25:46.784Z,6.13
2023-02-20T08:28:14.634Z,1.75
2023-02-20T08:30:42.213Z,3.45
2023-02-20T08:33:09.734Z,5.85
2023-02-20T08:35:37.255Z,2.67
2023-02-20T08:38:06.826Z,1.65
2023-02-20T08:40:35.092Z,4.18
2023-02-20T08:43:02.337Z,2.15
2023-02-20T08:45:29.899Z,2.47
2023-02-20T08:48:01.691Z,2.38
2023-02-20T08:50:28.994Z,6.65
2023-02-20T08:52:56.257Z,4.25
2023-02-20T08:55:23.567Z,2.58
2023-02-20T08:57:51.129Z,4.25
2023-02-20T09:00:19.138Z,2.40
2023-02-20T09:02:49.606Z,5.05
2023-02-20T09:05:17.381Z,7.45
2023-02-20T09:07:45.351Z,2.35
2023-02-20T09:10:13.339Z,4.20
2023-02-20T09:12:42.165Z,4.20
2023-02-20T09:15:10.347Z,3.92
2023-02-20T09:17:38.547Z,3.00
2023-02-20T09:20:09.757Z,1.77
2023-02-20T09:22:37.476Z,3.30
2023-02-20T09:25:05.244Z,1.60
2023-02-20T09:27:33.055Z,3.78
2023-02-20T09:30:00.841Z,8.27
2023-02-20T09:32:28.262Z,2.10
2023-02-20T09:34:55.587Z,3.97
2023-02-20T09:37:23.277Z,2.13
2023-02-20T09:39:50.909Z,3.28
2023-02-20T09:42:20.965Z,4.88
2023-02-20T09:44:57.057Z,6.57
2023-02-20T09:47:50.158Z,7.00
2023-02-20T09:50:30.434Z,2.55
2023-02-20T09:53:06.304Z,4.30
2023-02-20T09:55:40.352Z,2.58
2023-02-20T09:58:18.616Z,9.77
2023-02-20T10:00:47.159Z,4.45
2023-02-20T10:03:14.607Z,3.25
2023-02-20T10:05:43.362Z,1.17
2023-02-20T10:08:11.875Z,4.25
2023-02-20T10:10:39.447Z,3.35
2023-02-20T10:13:06.770Z,1.98
2023-02-20T10:15:50.972Z,1.45
2023-02-20T10:18:36.984Z,2.60
2023-02-20T10:21:11.578Z,3.42
2023-02-20T10:23:47.252Z,1.27
2023-02-20T10:26:23.657Z,4.32
2023-02-20T10:28:51.836Z,3.65
2023-02-20T10:31:35.366Z,3.35
2023-02-20T10:34:22.065Z,2.10
2023-02-20T10:36:55.188Z,1.40
2023-02-20T10:39:23.480Z,2.30
2023-02-20T10:42:26.161Z,5.05
2023-02-20T10:45:07.808Z,1.77
2023-02-20T10:47:45.962Z,0.70
2023-02-20T10:50:25.355Z,1.77
2023-02-20T10:52:54.959Z,0.90
2023-02-20T10:55:30.401Z,9.20
2023-02-20T10:58:18.246Z,4.45
2023-02-20T11:00:54.738Z,1.20
2023-02-20T11:03:38.286Z,1.45
2023-02-20T11:06:09.210Z,4.25
2023-02-20T11:08:36.524Z,1.98
2023-02-20T11:11:25.647Z,2.30
2023-02-20T11:13:53.262Z,2.67
2023-02-20T11:16:32.149Z,0.90
2023-02-20T11:19:42.980Z,2.30
2023-02-20T11:22:10.658Z,3.10
2023-02-20T11:24:43.421Z,1.25
2023-02-20T11:27:15.875Z,3.20
2023-02-20T11:30:01.762Z,7.18
2023-02-20T11:32:41.643Z,11.20
2023-02-20T11:35:15.291Z,4.07
2023-02-20T11:37:54.399Z,1.75
2023-02-20T11:40:30.519Z,1.30
2023-02-20T11:43:30.292Z,1.75
2023-02-20T11:46:18.944Z,1.88
2023-02-20T11:49:07.438Z,2.95
2023-02-20T11:51:44.994Z,4.05
2023-02-20T11:54:16.728Z,3.00
2023-02-20T11:57:06.144Z,0.70
2023-02-20T11:59:51.000Z,1.00
2023-02-20T12:02:18.426Z,1.05
2023-02-20T12:05:21.419Z,4.10
2023-02-20T12:07:52.314Z,4.47
2023-02-20T12:10:25.663Z,1.40
2023-02-20T12:12:53.776Z,2.30
2023-02-20T12:15:24.835Z,3.42
2023-02-20T12:18:24.995Z,4.18
2023-02-20T12:21:05.065Z,3.30
2023-02-20T12:23:57.212Z,12.60
2023-02-20T12:26:44.615Z,2.15
2023-02-20T12:29:31.208Z,1.88
2023-02-20T12:32:16.601Z,1.48
2023-02-20T12:34:54.131Z,0.80
2023-02-20T12:37:30.317Z,1.90
2023-02-20T12:40:09.475Z,3.97
2023-02-20T12:42:48.185Z,11.73
2023-02-20T12:45:35.370Z,8.68
2023-02-20T12:48:41.311Z,1.95
2023-02-20T12:51:14.615Z,17.52
2023-02-20T12:53:59.278Z,4.63
2023-02-20T12:56:41.598Z,3.88
2023-02-20T12:59:29.367Z,4.20
2023-02-20T13:04:56.684Z,2.90
2023-02-20T13:07:50.880Z,2.75
2023-02-20T13:10:46.413Z,5.35
2023-02-20T13:13:14.133Z,2.72
2023-02-20T13:15:47.536Z,3.83
2023-02-20T13:18:27.977Z,2.22
2023-02-20T13:21:00.700Z,2.20
2023-02-20T13:23:32.015Z,3.92
2023-02-20T13:25:59.796Z,7.18
2023-02-20T13:28:45.451Z,3.80
2023-02-20T13:31:15.959Z,7.32
2023-02-20T13:33:46.418Z,6.63
2023-02-20T13:36:42.429Z,4.50
2023-02-20T13:39:25.405Z,4.10
2023-02-20T13:41:55.554Z,5.15
2023-02-20T13:44:28.770Z,1.85
2023-02-20T13:47:02.574Z,2.17
2023-02-20T13:49:58.883Z,4.03
2023-02-20T13:52:29.410Z,2.25
2023-02-20T13:55:03.678Z,3.20
2023-02-20T13:57:36.232Z,3.05
2023-02-20T14:00:29.897Z,6.05
2023-02-20T14:02:57.403Z,2.50
2023-02-20T14:05:27.855Z,3.50
2023-02-20T14:07:55.235Z,2.03
2023-02-20T14:10:32.568Z,3.17
2023-02-20T14:13:16.205Z,5.60
2023-02-20T14:15:51.144Z,6.32
2023-02-20T14:18:24.273Z,16.45
2023-02-20T14:21:20.017Z,4.55
2023-02-20T14:23:49.072Z,2.88
2023-02-20T14:26:32.790Z,5.97
2023-02-20T14:29:00.903Z,1.38
2023-02-20T14:31:33.327Z,2.05
2023-02-20T14:34:22.175Z,1.35
2023-02-20T14:37:12.008Z,1.73
2023-02-20T14:40:02.814Z,5.10
2023-02-20T14:42:30.612Z,6.00
2023-02-20T14:45:00.443Z,5.10
2023-02-20T14:47:28.054Z,4.80
2023-02-20T14:50:09.227Z,2.58
2023-02-20T14:52:36.564Z,4.43
2023-02-20T14:55:06.963Z,5.88
2023-02-20T14:57:34.750Z,2.03
2023-02-20T15:00:17.003Z,6.60
2023-02-20T15:02:48.220Z,4.60
2023-02-20T15:05:31.580Z,7.95
2023-02-20T15:08:12.281Z,4.47
2023-02-20T15:10:43.579Z,4.93
2023-02-20T15:13:18.245Z,11.02
2023-02-20T15:15:52.070Z,5.47
2023-02-20T15:18:40.046Z,7.32
2023-02-20T15:21:07.982Z,4.22
2023-02-20T15:23:43.665Z,4.00
2023-02-20T15:26:34.142Z,3.28
2023-02-20T15:29:26.524Z,5.03
2023-02-20T15:32:02.355Z,3.13
2023-02-20T15:34:34.900Z,4.97
2023-02-20T15:37:27.326Z,4.32
2023-02-20T15:40:20.049Z,4.90
2023-02-20T15:42:48.260Z,3.28
2023-02-20T15:45:15.811Z,5.45
2023-02-20T15:47:43.078Z,11.48
2023-02-20T15:50:10.348Z,9.73
2023-02-20T15:52:37.709Z,10.07
2023-02-20T15:55:05.238Z,2.70
2023-02-20T15:57:32.617Z,6.55
2023-02-20T16:00:00.520Z,6.82
2023-02-20T16:02:27.832Z,5.25
2023-02-20T16:04:55.246Z,2.58
2023-02-20T16:07:22.653Z,3.67
2023-02-20T16:09:50.081Z,5.05
2023-02-20T16:12:23.996Z,3.05
2023-02-20T16:14:53.858Z,6.30
2023-02-20T16:17:25.765Z,8.73
2023-02-20T16:19:53.448Z,10.35
2023-02-20T16:22:21.412Z,5.07
2023-02-20T16:24:49.158Z,5.03
2023-02-20T16:27:24.358Z,3.40
2023-02-20T16:29:53.935Z,4.40
2023-02-20T16:32:25.712Z,9.40
2023-02-20T16:34:54.283Z,4.22
2023-02-20T16:37:22.280Z,4.30
2023-02-20T16:39:50.158Z,9.27
2023-02-20T16:42:23.255Z,2.15
2023-02-20T16:44:54.961Z,4.20
2023-02-20T16:47:28.560Z,4.22
2023-02-20T16:49:57.821Z,4.20
2023-02-20T16:52:53.292Z,6.18
2023-02-20T16:55:20.554Z,7.95
2023-02-20T16:57:48.006Z,2.35
2023-02-20T17:00:17.012Z,2.22
2023-02-20T17:02:44.972Z,1.88
2023-02-20T17:05:14.187Z,4.15
2023-02-20T17:07:41.618Z,4.13
2023-02-20T17:10:09.887Z,7.07
2023-02-20T17:12:37.349Z,3.97
2023-02-20T17:15:06.869Z,6.50
2023-02-20T17:17:35.045Z,5.00
2023-02-20T17:20:02.897Z,17.67
2023-02-20T17:22:30.296Z,3.70
2023-02-20T17:24:59.468Z,6.88
2023-02-20T17:27:26.758Z,4.63
2023-02-20T17:29:54.464Z,4.38
2023-02-20T17:32:21.841Z,4.78
2023-02-20T17:34:49.191Z,2.53
2023-02-20T17:37:16.560Z,4.18
2023-02-20T17:39:43.927Z,6.57
2023-02-20T17:42:12.806Z,4.35
2023-02-20T17:44:40.623Z,10.48
2023-02-20T17:47:11.576Z,10.30
2023-02-20T17:49:41.375Z,4.10
2023-02-20T17:52:10.185Z,6.13
2023-02-20T17:54:39.553Z,3.72
2023-02-20T17:57:07.029Z,7.63
2023-02-20T17:59:38.250Z,12.25
2023-02-20T18:02:07.783Z,16.23
2023-02-20T18:04:36.871Z,5.65
2023-02-20T18:07:05.862Z,4.30
2023-02-20T18:09:33.484Z,3.22
2023-02-20T18:12:02.019Z,7.00
2023-02-20T18:14:30.103Z,10.00
2023-02-20T18:16:57.554Z,9.25
2023-02-20T18:19:24.898Z,7.72
2023-02-20T18:21:52.927Z,11.00
2023-02-20T18:24:26.204Z,9.45
2023-02-20T18:26:54.819Z,4.60
2023-02-20T18:29:25.095Z,10.05
2023-02-20T18:31:54.021Z,5.30
2023-02-20T18:34:21.750Z,5.22
2023-02-20T18:36:49.505Z,7.60
2023-02-20T18:39:17.648Z,9.27
2023-02-20T18:41:56.007Z,9.45
2023-02-20T18:44:24.056Z,6.55
2023-02-20T18:46:51.730Z,7.97
2023-02-20T18:49:19.228Z,9.18
2023-02-20T18:51:46.543Z,7.47
2023-02-20T18:54:29.912Z,5.85
2023-02-20T18:56:57.257Z,12.23
2023-02-20T18:59:27.123Z,14.63
2023-02-20T19:01:55.698Z,13.32
2023-02-20T19:04:24.548Z,8.43
2023-02-20T19:06:52.580Z,6.55
2023-02-20T19:09:22.350Z,9.27
2023-02-20T19:11:55.363Z,10.88
2023-02-20T19:14:25.060Z,7.03
2023-02-20T19:16:57.077Z,4.45
2023-02-20T19:19:27.527Z,5.70
2023-02-20T19:21:55.342Z,4.00
2023-02-20T19:24:23.064Z,3.90
2023-02-20T19:26:51.382Z,5.80
2023-02-20T19:29:18.901Z,5.40
2023-02-20T19:31:46.531Z,4.05
2023-02-20T19:34:14.931Z,3.30
2023-02-20T19:36:42.692Z,4.97
2023-02-20T19:39:10.257Z,5.68
2023-02-20T19:41:39.509Z,4.85
2023-02-20T19:44:07.674Z,5.13
2023-02-20T19:46:35.530Z,4.85
2023-02-20T19:49:09.790Z,4.43
2023-02-20T19:51:37.151Z,5.13
2023-02-20T19:54:04.663Z,5.65
2023-02-20T19:56:32.431Z,4.03
2023-02-20T19:59:00.001Z,10.73
2023-02-20T20:01:27.661Z,8.48
2023-02-20T20:03:54.880Z,8.68
2023-02-20T20:06:26.498Z,19.42
2023-02-20T20:09:11.318Z,14.80
2023-02-20T20:11:41.239Z,22.85
2023-02-20T20:14:08.854Z,19.33
2023-02-20T20:16:40.612Z,22.42
2023-02-20T20:19:08.623Z,20.40
2023-02-20T20:21:36.999Z,15.55
2023-02-20T20:24:07.086Z,22.38
2023-02-20T20:26:35.162Z,18.55
2023-02-20T20:29:03.009Z,20.33
2023-02-20T20:31:36.721Z,22.35
2023-02-20T20:34:04.998Z,21.95
2023-02-20T20:36:32.374Z,23.58
2023-02-20T20:39:00.100Z,18.67
2023-02-20T20:41:30.413Z,25.00
2023-02-20T20:44:04.546Z,20.30
2023-02-20T20:46:36.654Z,21.42
2023-02-20T20:49:03.927Z,29.08
2023-02-20T20:51:31.156Z,20.90
2023-02-20T20:53:58.528Z,25.23
2023-02-20T20:56:25.904Z,22.70
2023-02-20T20:58:53.295Z,24.63
2023-02-20T21:01:20.649Z,15.52
2023-02-20T21:03:47.996Z,19.25
2023-02-20T21:06:15.412Z,26.17
2023-02-20T21:08:42.670Z,29.13
2023-02-20T21:11:09.929Z,20.30
2023-02-20T21:13:37.188Z,21.25
2023-02-20T21:16:04.544Z,26.27
2023-02-20T21:18:31.971Z,21.77
2023-02-20T21:20:59.701Z,31.02
2023-02-20T21:23:26.925Z,26.45
2023-02-20T21:25:54.620Z,17.20
2023-02-20T21:28:21.871Z,23.40
2023-02-20T21:30:49.184Z,19.65
2023-02-20T21:33:16.510Z,28.67
2023-02-20T21:35:43.821Z,21.98
2023-02-20T21:38:11.103Z,22.05
2023-02-20T21:40:38.453Z,24.98
2023-02-20T21:43:24.268Z,25.98
2023-02-20T21:45:51.598Z,19.08
2023-02-20T21:48:18.968Z,24.30
2023-02-20T21:50:46.611Z,27.52
2023-02-20T21:53:16.696Z,20.27
2023-02-20T21:55:45.129Z,30.25
2023-02-20T21:58:13.200Z,23.15
2023-02-20T22:00:40.877Z,25.42
2023-02-20T22:03:08.324Z,18.77
2023-02-20T22:05:35.575Z,19.98
2023-02-20T22:08:21.391Z,21.17
2023-02-20T22:11:07.392Z,24.17
2023-02-20T22:13:54.667Z,15.13
2023-02-20T22:16:40.765Z,17.70
2023-02-20T22:19:26.671Z,6.88
2023-02-20T22:22:12.679Z,12.27
2023-02-20T22:24:58.510Z,20.48
2023-02-20T22:27:44.522Z,9.35
2023-02-20T22:30:30.626Z,13.85
2023-02-20T22:33:16.248Z,12.55
2023-02-20T22:36:02.829Z,14.48
2023-02-20T22:38:48.751Z,13.02
2023-02-20T22:41:39.063Z,15.00
2023-02-20T22:44:25.205Z,14.60
2023-02-20T22:47:11.256Z,11.90
2023-02-20T22:49:56.887Z,14.63
2023-02-20T22:52:42.798Z,14.93
2023-02-20T22:55:31.296Z,11.88
2023-02-20T22:58:17.101Z,14.90
2023-02-20T23:01:03.271Z,14.25
2023-02-20T23:03:49.107Z,16.83
2023-02-20T23:06:39.261Z,11.80
2023-02-20T23:09:26.110Z,20.00
2023-02-20T23:12:12.610Z,15.03
2023-02-20T23:14:59.159Z,18.35
2023-02-20T23:17:45.209Z,22.80
2023-02-20T23:20:35.632Z,7.85
2023-02-20T23:23:22.406Z,16.73
2023-02-20T23:26:08.201Z,14.03
2023-02-20T23:28:54.380Z,25.63
2023-02-20T23:31:55.989Z,24.15
2023-02-20T23:34:42.758Z,24.85
2023-02-20T23:37:28.635Z,23.80
2023-02-20T23:40:19.132Z,16.90
2023-02-20T23:43:07.084Z,20.20
2023-02-20T23:45:52.860Z,19.63
2023-02-20T23:48:38.527Z,23.50
2023-02-20T23:51:28.836Z,20.88
2023-02-20T23:54:14.913Z,28.58
2023-02-20T23:57:01.114Z,23.95
2023-02-20T23:59:46.810Z,22.63
